Terminal Aerodrome Forecast
Issued by NWS Mt. Holly, NJ

Home | Current Version | Previous Version | Text Only | Print | Product List | Glossary On
Versions: 1 2 3 4 5 6 7 8 9 10 11 12 13 14 15 16
000
FTUS41 KPHI 041123
TAFACY
TAF
KACY 041123Z 0412/0512 30006KT P6SM SCT050
     FM041400 32009KT P6SM SCT050 BKN250
     FM042300 VRB02KT P6SM OVC120
     FM050900 VRB02KT 6SM -RA OVC025
     FM051100 16004KT 4SM -RA BR BKN015=

USA.gov is the U.S. government's official web portal to all federal, state and local government web resources and services.